Time;durP1;ratioP1;P1;durP2;ratioP2;P2;SDS_P1;SDS_P2;PMS_P1;PMS_P2;Temp;Humidity;BMP_temperature;BMP_pressure;BME280_temperature;BME280_humidity;BME280_pressure;Samples;Min_cycle;Max_cycle;Signal;HPM_P1;HPM_P2
2021/05/22 00:02:24;;;;;;;4.20;1.60;;;10.80;99.90;;;;;;5094423;28;20166;-71
2021/05/22 00:04:49;;;;;;;3.83;1.70;;;10.80;99.90;;;;;;5096148;28;20019;-71
2021/05/22 00:07:15;;;;;;;4.72;1.63;;;10.70;99.90;;;;;;5096087;28;20024;-71
2021/05/22 00:09:41;;;;;;;5.93;1.60;;;10.80;99.90;;;;;;5095485;28;20031;-71
2021/05/22 00:12:07;;;;;;;6.85;1.65;;;10.80;99.90;;;;;;5095715;28;20030;-71
2021/05/22 00:14:33;;;;;;;4.18;1.40;;;10.60;99.90;;;;;;5095959;28;20024;-71
2021/05/22 00:16:58;;;;;;;4.13;1.30;;;10.60;99.90;;;;;;5095632;28;20081;-71
2021/05/22 00:19:24;;;;;;;4.25;1.25;;;10.60;99.90;;;;;;5095593;28;20023;-71
2021/05/22 00:21:50;;;;;;;4.25;1.70;;;10.60;99.90;;;;;;5093908;28;20435;-71
2021/05/22 00:24:15;;;;;;;4.45;1.48;;;10.70;99.90;;;;;;5095572;28;20024;-71
2021/05/22 00:26:41;;;;;;;5.15;1.88;;;10.70;99.90;;;;;;5094879;28;20354;-71
2021/05/22 00:29:06;;;;;;;5.70;1.65;;;10.70;99.90;;;;;;5094152;28;20583;-71
2021/05/22 00:31:33;;;;;;;6.15;1.65;;;10.70;99.90;;;;;;5095606;28;20076;-71
2021/05/22 00:33:59;;;;;;;4.32;1.60;;;10.80;99.90;;;;;;5093754;28;20389;-71
2021/05/22 00:36:25;;;;;;;8.82;1.73;;;10.70;99.90;;;;;;5095219;28;20032;-71
2021/05/22 00:38:50;;;;;;;5.32;1.65;;;10.70;99.90;;;;;;5095444;28;20032;-71
2021/05/22 00:41:16;;;;;;;3.92;1.40;;;10.70;99.90;;;;;;5095326;28;20031;-71
2021/05/22 00:43:42;;;;;;;3.20;1.42;;;10.60;99.90;;;;;;5095072;28;20069;-71
2021/05/22 00:46:08;;;;;;;7.10;1.20;;;10.70;99.90;;;;;;5095039;28;20028;-71
2021/05/22 00:48:34;;;;;;;8.43;2.03;;;10.70;99.90;;;;;;5095008;28;20077;-71
2021/05/22 00:50:59;;;;;;;5.45;1.67;;;10.80;99.90;;;;;;5095238;28;20512;-71
2021/05/22 00:53:26;;;;;;;6.13;1.50;;;10.70;99.90;;;;;;5095152;28;20028;-71
2021/05/22 00:55:52;;;;;;;8.20;1.52;;;10.70;99.90;;;;;;5094831;28;20024;-71
2021/05/22 00:58:17;;;;;;;4.18;1.65;;;10.70;99.90;;;;;;5095084;28;20024;-71
2021/05/22 01:00:46;;;;;;;8.40;1.67;;;10.70;99.90;;;;;;5095047;28;20024;-71
2021/05/22 01:03:31;;;;;;;6.88;1.73;;;10.60;99.90;;;;;;5094253;28;20100;-71
2021/05/22 01:06:19;;;;;;;5.97;1.38;;;10.60;99.90;;;;;;5094680;28;20024;-71
2021/05/22 01:08:48;;;;;;;6.90;1.70;;;10.50;99.90;;;;;;5094861;28;20032;-71
2021/05/22 01:11:19;;;;;;;8.18;1.42;;;10.50;99.90;;;;;;5093859;28;20161;-71
2021/05/22 01:13:49;;;;;;;5.85;1.85;;;10.60;99.90;;;;;;5094754;28;20361;-71
2021/05/22 01:16:18;;;;;;;5.13;1.58;;;10.50;99.90;;;;;;5094189;28;20020;-71
2021/05/22 01:18:45;;;;;;;4.18;1.60;;;10.50;99.90;;;;;;5094699;28;20524;-71
2021/05/22 01:21:11;;;;;;;4.85;1.60;;;10.40;99.90;;;;;;5094695;28;20045;-71
2021/05/22 01:23:44;;;;;;;4.22;1.48;;;10.60;99.90;;;;;;5094313;28;20142;-71
2021/05/22 01:26:12;;;;;;;9.75;1.30;;;10.50;99.90;;;;;;5094638;28;20039;-71
2021/05/22 01:28:38;;;;;;;6.70;1.83;;;10.50;99.90;;;;;;5094326;28;20502;-71
2021/05/22 01:31:06;;;;;;;5.50;1.70;;;10.50;99.90;;;;;;5094270;28;20037;-71
2021/05/22 01:33:33;;;;;;;2.88;1.08;;;10.50;99.90;;;;;;5094197;28;20354;-71
2021/05/22 01:35:58;;;;;;;4.18;1.63;;;10.40;99.90;;;;;;5094234;28;20031;-71
2021/05/22 01:38:24;;;;;;;7.93;1.60;;;10.40;99.90;;;;;;5094158;28;20024;-71
2021/05/22 01:40:50;;;;;;;6.03;1.60;;;10.40;99.90;;;;;;5094109;28;20028;-71
2021/05/22 01:43:16;;;;;;;5.10;1.65;;;10.30;99.90;;;;;;5093755;28;20021;-71
2021/05/22 01:45:45;;;;;;;10.55;2.17;;;10.20;99.90;;;;;;5092517;28;20402;-71
2021/05/22 01:48:14;;;;;;;6.90;1.70;;;10.20;99.90;;;;;;5094006;28;20027;-71
2021/05/22 01:50:43;;;;;;;6.03;1.50;;;10.20;99.90;;;;;;5094265;28;20016;-71
2021/05/22 01:53:12;;;;;;;7.40;1.80;;;10.20;99.90;;;;;;5093969;28;20035;-71
2021/05/22 01:55:38;;;;;;;7.65;1.77;;;10.20;99.90;;;;;;5093693;28;20032;-71
2021/05/22 01:58:05;;;;;;;5.43;1.58;;;10.20;99.90;;;;;;5094227;28;20457;-71
2021/05/22 02:00:31;;;;;;;7.90;2.20;;;10.20;99.90;;;;;;5092296;28;20118;-71
2021/05/22 02:03:17;;;;;;;5.82;1.40;;;10.20;99.90;;;;;;5093527;28;20458;-71
2021/05/22 02:05:47;;;;;;;9.10;2.03;;;10.10;99.90;;;;;;5094125;28;20380;-71
2021/05/22 02:08:16;;;;;;;6.68;2.08;;;10.00;99.90;;;;;;5094108;28;20071;-71
2021/05/22 02:10:42;;;;;;;6.13;1.45;;;10.10;99.90;;;;;;5092828;28;20438;-71
2021/05/22 02:13:08;;;;;;;6.00;1.88;;;10.00;99.90;;;;;;5093772;28;20020;-71
2021/05/22 02:15:37;;;;;;;5.47;1.85;;;10.00;99.90;;;;;;5093729;28;20118;-71
2021/05/22 02:18:05;;;;;;;8.70;1.83;;;9.80;99.90;;;;;;5093988;28;20024;-71
2021/05/22 02:20:32;;;;;;;5.43;1.70;;;9.80;99.90;;;;;;5093972;28;20039;-71
2021/05/22 02:23:01;;;;;;;4.18;1.67;;;9.80;99.90;;;;;;5092340;28;20362;-71
2021/05/22 02:25:26;;;;;;;11.18;1.77;;;9.80;99.90;;;;;;5093937;28;20523;-71
2021/05/22 02:27:54;;;;;;;6.07;2.17;;;9.80;99.90;;;;;;5093940;28;20024;-71
2021/05/22 02:30:20;;;;;;;6.85;1.73;;;9.80;99.90;;;;;;5093890;28;20027;-71
2021/05/22 02:32:49;;;;;;;7.32;1.65;;;9.80;99.90;;;;;;5093877;28;20028;-71
2021/05/22 02:35:18;;;;;;;6.97;1.80;;;9.80;99.90;;;;;;5093858;28;20031;-71
2021/05/22 02:37:47;;;;;;;7.13;1.92;;;9.70;99.90;;;;;;5093543;28;20024;-71
2021/05/22 02:40:16;;;;;;;10.27;1.58;;;9.80;99.90;;;;;;5093798;28;20024;-71
2021/05/22 02:42:46;;;;;;;4.32;1.65;;;9.80;99.90;;;;;;5093710;28;20028;-71
2021/05/22 02:45:12;;;;;;;3.90;1.60;;;9.90;99.90;;;;;;5092295;28;20027;-71
2021/05/22 02:47:40;;;;;;;10.50;2.00;;;10.00;99.90;;;;;;5093736;28;20442;-71
2021/05/22 02:50:09;;;;;;;4.78;1.73;;;10.00;99.90;;;;;;5097142;28;20111;-71
2021/05/22 02:52:38;;;;;;;5.18;1.83;;;10.00;99.90;;;;;;5097248;28;20038;-71
2021/05/22 02:55:06;;;;;;;6.28;1.50;;;9.90;99.90;;;;;;5097463;28;20437;-71
2021/05/22 02:57:35;;;;;;;6.88;1.98;;;10.00;99.90;;;;;;5097420;28;20024;-71
2021/05/22 03:00:01;;;;;;;8.20;1.63;;;9.90;99.90;;;;;;5097100;28;20032;-71
2021/05/22 03:02:27;;;;;;;7.15;1.70;;;9.90;99.90;;;;;;5096787;28;20044;-71
2021/05/22 03:04:53;;;;;;;9.40;1.83;;;9.90;99.90;;;;;;5096946;28;20020;-71
2021/05/22 03:07:19;;;;;;;5.03;1.50;;;10.00;99.90;;;;;;5097253;28;20393;-71
2021/05/22 03:09:46;;;;;;;4.68;1.30;;;10.00;99.90;;;;;;5096651;28;20024;-71
2021/05/22 03:12:17;;;;;;;2.97;1.45;;;10.00;99.90;;;;;;5097140;28;20061;-71
2021/05/22 03:14:43;;;;;;;4.70;1.70;;;9.90;99.90;;;;;;5096797;28;20028;-71
2021/05/22 03:17:09;;;;;;;6.20;1.90;;;9.90;99.90;;;;;;5095903;28;20031;-71
2021/05/22 03:19:34;;;;;;;9.82;1.83;;;9.90;99.90;;;;;;5097000;28;20373;-71
2021/05/22 03:22:00;;;;;;;9.27;2.25;;;10.00;99.90;;;;;;5096912;28;20078;-71
2021/05/22 03:24:25;;;;;;;5.55;1.90;;;10.00;99.90;;;;;;5096663;28;20043;-71
2021/05/22 03:26:51;;;;;;;10.18;1.85;;;9.90;99.90;;;;;;5096621;28;20046;-71
2021/05/22 03:29:16;;;;;;;7.05;1.65;;;10.00;99.90;;;;;;5096833;28;20381;-71
2021/05/22 03:31:42;;;;;;;7.22;1.48;;;9.90;99.90;;;;;;5096208;28;20035;-71
2021/05/22 03:34:07;;;;;;;5.25;1.63;;;9.90;99.90;;;;;;5096763;28;20027;-71
2021/05/22 03:36:33;;;;;;;5.22;1.40;;;10.00;99.90;;;;;;5096719;28;20395;-71
2021/05/22 03:38:58;;;;;;;8.63;1.40;;;10.10;99.90;;;;;;5096690;28;20475;-71
2021/05/22 03:41:24;;;;;;;4.55;1.35;;;10.10;99.90;;;;;;5096546;28;20031;-71
2021/05/22 03:43:49;;;;;;;5.43;1.73;;;10.20;99.90;;;;;;5096567;28;20028;-71
2021/05/22 03:46:15;;;;;;;8.13;1.58;;;10.20;99.90;;;;;;5096516;28;20062;-71
2021/05/22 03:48:40;;;;;;;5.90;1.40;;;10.30;99.90;;;;;;5096235;28;20052;-71
2021/05/22 03:51:06;;;;;;;4.38;1.52;;;10.30;99.90;;;;;;5096464;28;20035;-71
2021/05/22 03:53:32;;;;;;;2.97;1.25;;;10.40;99.90;;;;;;5096090;28;20024;-71
2021/05/22 03:55:58;;;;;;;3.13;1.30;;;10.40;99.90;;;;;;5095779;28;20024;-71
2021/05/22 03:58:23;;;;;;;7.00;1.95;;;10.40;99.90;;;;;;5095724;28;20103;-71
2021/05/22 04:00:49;;;;;;;5.43;1.33;;;10.50;99.90;;;;;;5095854;28;20103;-71
2021/05/22 04:03:14;;;;;;;5.43;1.60;;;10.50;99.90;;;;;;5095436;28;20044;-71
2021/05/22 04:05:40;;;;;;;7.78;1.30;;;10.60;99.90;;;;;;5096169;28;20358;-71
2021/05/22 04:08:05;;;;;;;10.23;2.03;;;10.60;99.90;;;;;;5096103;28;20028;-71
2021/05/22 04:10:31;;;;;;;6.93;1.50;;;10.60;99.90;;;;;;5096076;28;20079;-71
2021/05/22 04:12:57;;;;;;;5.90;1.52;;;10.60;99.90;;;;;;5095725;28;20031;-71
2021/05/22 04:15:23;;;;;;;8.88;1.40;;;10.60;99.90;;;;;;5095683;28;20035;-71
2021/05/22 04:17:48;;;;;;;4.90;1.40;;;10.60;99.90;;;;;;5095922;28;20028;-71
2021/05/22 04:20:14;;;;;;;11.15;1.50;;;10.50;99.90;;;;;;5096089;28;20020;-71
2021/05/22 04:22:40;;;;;;;5.40;1.45;;;10.60;99.90;;;;;;5095752;28;20523;-71
2021/05/22 04:25:07;;;;;;;4.25;1.42;;;10.50;99.90;;;;;;5095759;28;20020;-71
2021/05/22 04:27:33;;;;;;;4.55;1.70;;;10.70;99.90;;;;;;5095700;28;20028;-71
2021/05/22 04:29:59;;;;;;;7.28;1.60;;;10.90;99.90;;;;;;5095634;28;20016;-71
2021/05/22 04:32:25;;;;;;;7.25;1.65;;;11.40;99.90;;;;;;5094154;28;20496;-71
2021/05/22 04:34:50;;;;;;;10.20;1.60;;;12.20;99.90;;;;;;5095574;28;20036;-71
2021/05/22 04:37:16;;;;;;;5.18;1.30;;;12.70;99.90;;;;;;5095509;28;20024;-71
2021/05/22 04:39:41;;;;;;;5.40;1.67;;;12.60;99.90;;;;;;5095212;28;20028;-71
2021/05/22 04:42:07;;;;;;;5.70;1.10;;;12.80;99.90;;;;;;5093936;28;20102;-71
2021/05/22 04:44:33;;;;;;;9.45;1.55;;;12.30;99.90;;;;;;5095102;28;20026;-71
2021/05/22 04:46:58;;;;;;;4.93;1.40;;;11.70;99.90;;;;;;5094788;28;20023;-71
2021/05/22 04:49:27;;;;;;;4.03;1.40;;;11.60;99.90;;;;;;5095273;28;20077;-71
2021/05/22 04:51:54;;;;;;;8.13;1.73;;;11.50;99.90;;;;;;5095245;28;20021;-71
2021/05/22 04:54:20;;;;;;;6.53;1.73;;;11.40;99.90;;;;;;5094640;28;20024;-71
2021/05/22 04:56:45;;;;;;;6.80;1.50;;;11.30;99.90;;;;;;5095150;28;20038;-71
2021/05/22 04:59:11;;;;;;;8.27;1.98;;;11.30;99.90;;;;;;5095118;28;20024;-71
2021/05/22 05:01:36;;;;;;;6.22;1.67;;;11.40;99.90;;;;;;5094705;28;20048;-71
2021/05/22 05:04:02;;;;;;;4.25;1.55;;;11.40;99.90;;;;;;5095009;28;20389;-71
2021/05/22 05:06:28;;;;;;;8.77;1.77;;;11.40;99.90;;;;;;5094998;28;20055;-71
2021/05/22 05:08:54;;;;;;;4.63;1.55;;;11.50;99.90;;;;;;5093956;28;20103;-71
2021/05/22 05:11:20;;;;;;;8.85;1.65;;;11.40;99.90;;;;;;5094364;28;20063;-71
2021/05/22 05:13:45;;;;;;;11.85;1.80;;;11.40;99.90;;;;;;5094567;28;20051;-71
2021/05/22 05:16:13;;;;;;;7.00;1.65;;;11.40;99.90;;;;;;5094228;28;20031;-71
2021/05/22 05:18:39;;;;;;;8.05;1.52;;;11.40;99.90;;;;;;5094492;28;20036;-71
2021/05/22 05:21:04;;;;;;;3.95;1.17;;;11.30;99.90;;;;;;5094706;28;20028;-71
2021/05/22 05:23:30;;;;;;;4.97;1.60;;;11.30;99.90;;;;;;5094693;28;20508;-71
2021/05/22 05:25:55;;;;;;;6.10;1.60;;;11.30;99.90;;;;;;5094177;28;20039;-71
2021/05/22 05:28:21;;;;;;;15.38;2.70;;;11.40;99.90;;;;;;5094699;28;20021;-71
2021/05/22 05:30:47;;;;;;;5.28;1.35;;;11.50;99.90;;;;;;5094632;28;20020;-71
2021/05/22 05:33:12;;;;;;;7.50;1.65;;;11.60;99.90;;;;;;5094555;28;20484;-71
2021/05/22 05:35:38;;;;;;;8.60;1.77;;;11.60;99.90;;;;;;5094241;28;20114;-71
2021/05/22 05:38:04;;;;;;;6.20;1.50;;;11.60;99.90;;;;;;5094199;28;20030;-71
2021/05/22 05:40:30;;;;;;;3.17;1.50;;;11.60;99.90;;;;;;5094513;28;20047;-71
2021/05/22 05:42:55;;;;;;;5.45;1.65;;;11.70;99.90;;;;;;5094374;28;20051;-71
2021/05/22 05:45:21;;;;;;;7.97;1.75;;;11.70;99.90;;;;;;5094384;28;20027;-71
2021/05/22 05:47:47;;;;;;;7.57;2.10;;;11.60;99.90;;;;;;5094312;28;20023;-71
2021/05/22 05:50:13;;;;;;;7.25;1.83;;;11.60;99.90;;;;;;5093963;28;20016;-71
2021/05/22 05:52:38;;;;;;;11.10;2.00;;;11.50;99.90;;;;;;5094238;28;20032;-71
2021/05/22 05:55:05;;;;;;;5.57;1.70;;;11.50;99.90;;;;;;5094237;28;20036;-71
2021/05/22 05:57:30;;;;;;;7.55;1.90;;;11.60;99.90;;;;;;5093866;28;20039;-71
2021/05/22 05:59:56;;;;;;;10.27;1.95;;;11.60;99.90;;;;;;5093591;28;20027;-71
2021/05/22 06:02:21;;;;;;;7.43;1.63;;;11.70;99.90;;;;;;5093537;28;20115;-71
2021/05/22 06:04:47;;;;;;;6.53;1.65;;;12.00;99.90;;;;;;5094076;28;20020;-71
2021/05/22 06:07:12;;;;;;;8.15;1.58;;;12.00;99.90;;;;;;5094006;28;20020;-71
2021/05/22 06:09:41;;;;;;;4.75;1.80;;;12.30;99.90;;;;;;5094068;28;20021;-71
2021/05/22 06:12:07;;;;;;;6.70;1.50;;;12.40;99.90;;;;;;5094091;28;20027;-71
2021/05/22 06:14:36;;;;;;;8.05;1.65;;;12.40;99.90;;;;;;5093721;28;20069;-71
2021/05/22 06:17:02;;;;;;;8.85;2.00;;;12.60;99.90;;;;;;5093705;28;20024;-71
2021/05/22 06:19:27;;;;;;;4.45;1.52;;;13.00;99.90;;;;;;5093726;28;20031;-71
2021/05/22 06:21:53;;;;;;;8.10;1.70;;;12.80;99.90;;;;;;5093825;28;20027;-71
2021/05/22 06:24:18;;;;;;;11.07;2.72;;;13.00;99.90;;;;;;5096225;28;20122;-71
2021/05/22 06:26:44;;;;;;;7.85;1.63;;;13.30;99.90;;;;;;5097718;28;20032;-71
2021/05/22 06:29:09;;;;;;;9.40;1.90;;;13.10;99.90;;;;;;5097433;28;20020;-71
2021/05/22 06:31:35;;;;;;;9.95;1.77;;;13.10;99.90;;;;;;5097638;28;20016;-71
2021/05/22 06:34:00;;;;;;;7.75;1.88;;;13.00;99.90;;;;;;5097562;28;20043;-71
2021/05/22 06:36:28;;;;;;;9.60;1.90;;;12.90;99.90;;;;;;5097612;28;20373;-71
2021/05/22 06:38:54;;;;;;;5.20;1.85;;;13.00;99.90;;;;;;5097765;28;20385;-71
2021/05/22 06:41:20;;;;;;;6.47;2.40;;;13.10;99.90;;;;;;5096558;28;20149;-71
2021/05/22 06:43:46;;;;;;;6.75;1.60;;;13.00;99.90;;;;;;5097690;28;20027;-71
2021/05/22 06:48:48;;;;;;;8.77;2.15;;;12.70;99.90;;;;;;5110972;27;20389;-71
2021/05/22 06:51:14;;;;;;;8.38;1.70;;;12.30;99.90;;;;;;5111909;28;20015;-72
2021/05/22 06:53:39;;;;;;;5.30;1.75;;;12.10;99.90;;;;;;5111310;28;20097;-72
2021/05/22 06:56:05;;;;;;;6.40;1.70;;;11.90;99.90;;;;;;5111226;28;20030;-72
2021/05/22 06:58:31;;;;;;;9.52;2.20;;;11.80;99.90;;;;;;5111741;28;20024;-71
2021/05/22 07:00:57;;;;;;;7.63;1.65;;;11.60;99.90;;;;;;5111675;28;20448;-72
2021/05/22 07:03:23;;;;;;;5.78;1.58;;;11.60;99.90;;;;;;5109874;28;20024;-71
2021/05/22 07:05:49;;;;;;;9.30;2.10;;;11.70;99.90;;;;;;5111409;28;20059;-71
2021/05/22 07:08:16;;;;;;;6.85;1.70;;;11.60;99.90;;;;;;5111251;28;20070;-72
2021/05/22 07:10:42;;;;;;;4.32;1.42;;;11.50;99.90;;;;;;5111261;28;20039;-72
2021/05/22 07:13:08;;;;;;;6.32;1.38;;;11.50;99.90;;;;;;5111532;28;20465;-72
2021/05/22 07:15:41;;;;;;;6.63;2.08;;;11.50;99.90;;;;;;5111444;28;20028;-72
2021/05/22 07:18:06;;;;;;;4.57;1.70;;;11.50;99.90;;;;;;5111408;28;20028;-72
2021/05/22 07:20:32;;;;;;;5.97;1.50;;;11.50;99.90;;;;;;5110793;28;20077;-72
2021/05/22 07:22:57;;;;;;;5.88;1.77;;;11.50;99.90;;;;;;5111323;28;20024;-72
2021/05/22 07:25:24;;;;;;;6.03;1.50;;;11.60;99.90;;;;;;5111203;28;20024;-72
2021/05/22 07:27:51;;;;;;;7.10;1.90;;;11.60;99.90;;;;;;5110622;28;20358;-72
2021/05/22 07:30:17;;;;;;;11.75;1.85;;;11.70;99.90;;;;;;5111191;28;20023;-72
2021/05/22 07:32:44;;;;;;;7.85;1.88;;;11.90;99.90;;;;;;5110849;28;20027;-72
2021/05/22 07:35:11;;;;;;;5.00;1.45;;;11.70;99.90;;;;;;5110832;28;20019;-72
2021/05/22 07:37:37;;;;;;;7.63;1.52;;;11.60;99.90;;;;;;5110426;28;20019;-72
2021/05/22 07:40:05;;;;;;;6.70;1.60;;;11.50;99.90;;;;;;5110462;28;20031;-72
2021/05/22 07:42:31;;;;;;;5.00;1.60;;;11.50;99.90;;;;;;5110661;28;20119;-72
2021/05/22 07:44:57;;;;;;;6.30;1.60;;;11.50;99.90;;;;;;5110663;28;20064;-72
2021/05/22 07:47:24;;;;;;;3.92;1.58;;;11.50;99.90;;;;;;5110067;28;20049;-72
2021/05/22 07:49:51;;;;;;;7.40;1.27;;;11.40;99.90;;;;;;5110857;28;20027;-72
2021/05/22 07:52:17;;;;;;;3.90;1.45;;;11.40;99.90;;;;;;5110537;28;20024;-72
2021/05/22 07:54:43;;;;;;;6.13;1.60;;;11.40;99.90;;;;;;5108933;28;20031;-72
2021/05/22 07:57:10;;;;;;;7.68;1.42;;;11.40;99.90;;;;;;5110428;28;20076;-72
2021/05/22 07:59:36;;;;;;;7.70;1.60;;;11.50;99.90;;;;;;5100318;28;20027;-72
2021/05/22 08:02:02;;;;;;;3.95;1.50;;;11.70;99.90;;;;;;5097018;28;20020;-72
2021/05/22 08:04:28;;;;;;;10.82;1.98;;;11.70;99.90;;;;;;5096981;28;20047;-72
2021/05/22 08:06:54;;;;;;;4.80;1.55;;;11.70;99.90;;;;;;5096294;28;20050;-72
2021/05/22 08:09:19;;;;;;;4.97;1.77;;;11.70;99.90;;;;;;5096843;28;20027;-72
2021/05/22 08:11:45;;;;;;;6.60;1.60;;;11.70;99.90;;;;;;5096287;28;20103;-71
2021/05/22 08:14:11;;;;;;;6.38;2.17;;;11.70;99.90;;;;;;5096798;28;20024;-72
2021/05/22 08:16:37;;;;;;;7.25;1.60;;;11.50;99.90;;;;;;5096164;28;20028;-72
2021/05/22 08:19:04;;;;;;;3.67;1.55;;;11.40;99.90;;;;;;5096437;28;20077;-72
2021/05/22 08:21:29;;;;;;;6.35;1.85;;;11.40;99.90;;;;;;5096622;28;20074;-71
2021/05/22 08:23:55;;;;;;;5.03;1.48;;;11.30;99.90;;;;;;5096628;28;20399;-71
2021/05/22 08:26:22;;;;;;;4.60;1.45;;;11.30;99.90;;;;;;5096026;28;20023;-71
2021/05/22 08:28:48;;;;;;;5.18;1.45;;;11.30;99.90;;;;;;5095492;28;20389;-71
2021/05/22 08:31:14;;;;;;;6.63;1.80;;;11.30;99.90;;;;;;5096475;28;20023;-71
2021/05/22 08:33:40;;;;;;;3.55;1.33;;;11.20;99.90;;;;;;5096461;28;20020;-71
2021/05/22 08:36:07;;;;;;;3.00;1.60;;;11.20;99.90;;;;;;5096085;28;20025;-72
2021/05/22 08:38:32;;;;;;;3.55;1.35;;;11.20;99.90;;;;;;5095953;28;20103;-71
2021/05/22 08:41:00;;;;;;;3.50;1.13;;;11.10;99.90;;;;;;5094765;28;20062;-71
2021/05/22 08:43:26;;;;;;;3.92;1.27;;;11.20;99.90;;;;;;5096195;28;20029;-72
2021/05/22 08:45:51;;;;;;;6.63;1.73;;;11.20;99.90;;;;;;5095883;28;20131;-71
2021/05/22 08:48:17;;;;;;;3.42;1.40;;;11.00;99.90;;;;;;5095456;28;20393;-72
2021/05/22 08:50:43;;;;;;;3.38;1.60;;;11.00;99.90;;;;;;5095763;28;20024;-71
2021/05/22 08:53:08;;;;;;;5.07;1.48;;;11.00;99.90;;;;;;5095772;28;20501;-71
2021/05/22 08:55:34;;;;;;;4.13;1.48;;;11.00;99.90;;;;;;5094822;28;20476;-72
2021/05/22 08:57:59;;;;;;;7.13;1.70;;;11.00;99.90;;;;;;5095954;28;20351;-71
2021/05/22 09:00:27;;;;;;;5.15;1.60;;;10.90;99.90;;;;;;5095899;28;20073;-71
2021/05/22 09:02:53;;;;;;;5.53;1.92;;;11.00;99.90;;;;;;5095600;28;20028;-72
2021/05/22 09:05:22;;;;;;;4.03;1.60;;;10.90;99.90;;;;;;5095517;28;20020;-72
2021/05/22 09:07:51;;;;;;;4.25;1.73;;;10.90;99.90;;;;;;5095711;28;20054;-71
2021/05/22 09:10:26;;;;;;;3.80;1.30;;;10.80;99.90;;;;;;5094428;28;20020;-72
2021/05/22 09:13:02;;;;;;;4.28;1.60;;;10.80;99.90;;;;;;5095323;28;20103;-72
2021/05/22 09:15:32;;;;;;;6.05;2.00;;;10.60;99.90;;;;;;5095305;28;20023;-71
2021/05/22 09:18:00;;;;;;;3.70;2.33;;;10.70;99.90;;;;;;5095000;28;20097;-72
2021/05/22 09:20:32;;;;;;;4.72;1.83;;;10.70;99.90;;;;;;5095515;28;20034;-71
2021/05/22 09:23:01;;;;;;;10.48;2.05;;;10.70;99.90;;;;;;5095227;28;20024;-71
2021/05/22 09:25:28;;;;;;;5.35;2.10;;;10.70;99.90;;;;;;5095160;28;20020;-72
2021/05/22 09:27:55;;;;;;;5.93;2.00;;;10.70;99.90;;;;;;5094150;28;20081;-71
2021/05/22 09:30:23;;;;;;;5.88;1.92;;;10.70;99.90;;;;;;5095289;28;20039;-72
2021/05/22 09:32:49;;;;;;;4.10;1.90;;;10.70;99.90;;;;;;5095017;28;20024;-71
2021/05/22 09:35:17;;;;;;;4.20;1.70;;;10.70;99.90;;;;;;5094947;28;20024;-71
2021/05/22 09:37:48;;;;;;;14.90;2.65;;;10.70;99.90;;;;;;5094924;28;20053;-71
2021/05/22 09:40:17;;;;;;;7.45;1.98;;;10.70;99.90;;;;;;5095169;28;20020;-71
2021/05/22 09:42:43;;;;;;;6.20;2.35;;;10.60;99.90;;;;;;5095109;28;20025;-71
2021/05/22 09:45:44;;;;;;;3.83;1.75;;;10.70;99.90;;;;;;5094993;28;20385;-72
2021/05/22 09:48:19;;;;;;;4.63;1.70;;;10.70;99.90;;;;;;5094375;28;20036;-71
2021/05/22 09:50:49;;;;;;;10.10;2.40;;;10.80;99.90;;;;;;5094935;28;20420;-71
2021/05/22 09:53:32;;;;;;;5.03;2.05;;;10.90;99.90;;;;;;5093443;28;20030;-71
2021/05/22 09:56:16;;;;;;;3.35;1.95;;;10.90;99.90;;;;;;5094595;28;20024;-72
2021/05/22 09:58:43;;;;;;;;;;;11.00;99.90;;;;;;5095240;28;20020;-71
2021/05/22 10:01:10;;;;;;;3.13;1.67;;;11.00;99.90;;;;;;5094756;28;20376;-72
2021/05/22 10:03:36;;;;;;;4.90;1.77;;;11.10;99.90;;;;;;5094173;28;20504;-72
2021/05/22 10:06:02;;;;;;;6.47;1.75;;;11.20;99.90;;;;;;5093970;28;20093;-71
2021/05/22 10:08:28;;;;;;;6.97;2.10;;;11.30;99.90;;;;;;5094448;28;20465;-71
2021/05/22 10:10:57;;;;;;;5.25;1.58;;;11.40;99.90;;;;;;5093064;28;20020;-72
2021/05/22 10:13:24;;;;;;;8.25;2.20;;;11.50;99.90;;;;;;5093117;28;20016;-72
2021/05/22 10:15:52;;;;;;;7.13;2.03;;;11.50;99.90;;;;;;5094278;28;20048;-71
2021/05/22 10:18:20;;;;;;;7.38;2.00;;;11.50;99.90;;;;;;5094381;28;20020;-71
2021/05/22 10:20:47;;;;;;;5.25;1.90;;;11.80;99.90;;;;;;5094382;28;20132;-72
2021/05/22 10:23:14;;;;;;;4.53;1.77;;;11.70;99.90;;;;;;5094139;28;20028;-71
2021/05/22 10:25:40;;;;;;;2.92;1.50;;;11.70;99.90;;;;;;5094391;28;20532;-72
2021/05/22 10:28:08;;;;;;;6.50;1.73;;;11.90;99.90;;;;;;5094280;28;20028;-72
2021/05/22 10:30:37;;;;;;;3.47;1.67;;;12.00;99.90;;;;;;5094284;28;20024;-72
2021/05/22 10:33:08;;;;;;;5.55;1.80;;;12.20;99.90;;;;;;5094264;28;20096;-72
2021/05/22 10:35:51;;;;;;;6.90;1.58;;;12.50;99.90;;;;;;5093976;28;20103;-72
2021/05/22 10:38:35;;;;;;;;;;;12.80;99.90;;;;;;5094603;28;20445;-72
2021/05/22 10:41:05;;;;;;;4.30;1.73;;;13.10;99.90;;;;;;5093682;28;19907;-72
2021/05/22 10:43:40;;;;;;;6.43;1.80;;;13.30;99.90;;;;;;5093858;28;20109;-72
2021/05/22 10:46:06;;;;;;;4.95;1.40;;;13.00;99.90;;;;;;5094153;28;20020;-72
2021/05/22 10:48:37;;;;;;;8.60;1.85;;;12.80;99.90;;;;;;5093368;28;20040;-72
2021/05/22 10:51:02;;;;;;;8.23;2.33;;;12.40;99.90;;;;;;5093795;28;20016;-72
2021/05/22 10:53:33;;;;;;;8.60;1.95;;;12.30;99.90;;;;;;5094089;28;20365;-72
2021/05/22 10:56:16;;;;;;;4.32;2.10;;;12.20;99.90;;;;;;5092593;28;20078;-72
2021/05/22 11:01:40;;;;;;;8.00;1.95;;;12.20;99.90;;;;;;5112177;27;20404;-70
2021/05/22 11:06:51;;;;;;;4.65;1.83;;;12.00;99.90;;;;;;5112271;27;20347;-72
2021/05/22 11:14:53;;;;;;;6.47;2.08;;;12.20;99.90;;;;;;5112255;27;20904;-72
2021/05/22 11:25:15;;;;;;;4.03;1.90;;;12.20;99.90;;;;;;5111013;27;20435;-72
2021/05/22 11:33:29;;;;;;;3.50;1.80;;;13.00;99.90;;;;;;5112240;27;20404;-72
2021/05/22 11:35:57;;;;;;;4.63;1.90;;;12.80;99.90;;;;;;5111673;28;20383;-72
2021/05/22 11:38:26;;;;;;;7.40;1.80;;;12.70;99.90;;;;;;5111897;28;20023;-72
2021/05/22 11:40:54;;;;;;;5.45;1.90;;;12.40;99.90;;;;;;5111823;28;20016;-72
2021/05/22 11:46:01;;;;;;;7.47;2.28;;;12.30;99.90;;;;;;5112281;27;20115;-72
2021/05/22 11:51:10;;;;;;;6.40;1.90;;;12.40;99.90;;;;;;5112201;27;20751;-72
2021/05/22 11:53:37;;;;;;;7.35;2.00;;;12.60;99.90;;;;;;5111953;28;20020;-72
2021/05/22 11:56:09;;;;;;;5.53;2.10;;;12.50;99.90;;;;;;5111889;28;20015;-72
2021/05/22 11:58:37;;;;;;;7.65;2.28;;;12.60;99.90;;;;;;5111580;28;20469;-71
2021/05/22 12:01:14;;;;;;;3.08;1.98;;;12.80;99.90;;;;;;5111524;28;20081;-72
2021/05/22 12:03:42;;;;;;;5.93;2.30;;;12.80;99.90;;;;;;5111763;28;20020;-72
2021/05/22 12:06:09;;;;;;;4.55;2.10;;;12.80;99.90;;;;;;5111762;28;20081;-72
2021/05/22 12:08:36;;;;;;;8.52;2.70;;;12.80;99.90;;;;;;5111626;28;20039;-72
2021/05/22 12:11:12;;;;;;;7.45;2.80;;;12.90;99.90;;;;;;5111526;28;20023;-72
2021/05/22 12:13:54;;;;;;;5.13;2.58;;;13.00;99.90;;;;;;5111000;28;20016;-72
2021/05/22 12:16:21;;;;;;;6.22;2.15;;;12.70;99.90;;;;;;5111486;28;20441;-72
2021/05/22 12:18:47;;;;;;;5.15;2.35;;;12.40;99.90;;;;;;5111101;28;20073;-71
2021/05/22 12:21:23;;;;;;;7.75;2.35;;;12.40;99.90;;;;;;5110855;28;20020;-71
2021/05/22 12:23:51;;;;;;;9.07;2.78;;;12.50;99.90;;;;;;5111378;28;20031;-72
2021/05/22 12:26:17;;;;;;;5.13;2.30;;;12.50;99.90;;;;;;5111339;28;20449;-72
2021/05/22 12:28:42;;;;;;;7.75;2.95;;;12.30;99.90;;;;;;5111153;28;20024;-72
2021/05/22 12:31:08;;;;;;;7.55;2.20;;;12.40;99.90;;;;;;5111265;28;20016;-72
2021/05/22 12:33:33;;;;;;;8.23;2.20;;;12.20;99.90;;;;;;5109686;28;20108;-72
2021/05/22 12:36:09;;;;;;;7.15;2.50;;;12.20;99.90;;;;;;5111107;28;20373;-72
2021/05/22 12:38:45;;;;;;;5.43;2.30;;;12.20;99.90;;;;;;5109625;28;20019;-72
2021/05/22 12:41:12;;;;;;;5.15;1.98;;;12.30;99.90;;;;;;5111024;28;20020;-72
2021/05/22 12:43:47;;;;;;;12.05;2.22;;;12.20;99.90;;;;;;5110401;28;20027;-72
2021/05/22 12:46:34;;;;;;;5.53;2.17;;;12.10;99.90;;;;;;5110623;28;20027;-72
2021/05/22 12:49:18;;;;;;;4.82;2.05;;;12.20;99.90;;;;;;5110494;28;20477;-71
2021/05/22 12:51:46;;;;;;;4.78;2.42;;;12.30;99.90;;;;;;5110845;28;20073;-72
2021/05/22 12:54:40;;;;;;;6.57;2.20;;;12.30;99.90;;;;;;5110740;28;20020;-72
2021/05/22 13:02:36;;;;;;;8.25;2.70;;;12.10;99.90;;;;;;5131467;27;666827;-72
2021/05/22 13:07:54;;;;;;;4.53;2.05;;;12.10;99.90;;;;;;5112244;27;20355;-72
2021/05/22 13:10:32;;;;;;;9.07;2.40;;;12.10;99.90;;;;;;5110856;28;20020;-72
2021/05/22 13:13:17;;;;;;;6.72;2.45;;;12.00;99.90;;;;;;5111315;28;20037;-72
2021/05/22 13:15:47;;;;;;;8.10;2.75;;;12.10;99.90;;;;;;5111862;28;20061;-72
2021/05/22 13:18:15;;;;;;;7.72;2.53;;;12.20;99.90;;;;;;5111471;28;20030;-71
2021/05/22 13:20:43;;;;;;;6.60;2.20;;;12.20;99.90;;;;;;5109875;28;20115;-72
2021/05/22 13:23:20;;;;;;;8.10;2.58;;;12.20;99.90;;;;;;5111627;28;20022;-72
2021/05/22 13:25:51;;;;;;;7.53;2.40;;;12.20;99.90;;;;;;5111488;28;20027;-72
2021/05/22 13:28:24;;;;;;;6.43;2.30;;;12.20;99.90;;;;;;5110415;28;20048;-72
2021/05/22 13:31:02;;;;;;;7.30;2.47;;;12.20;99.90;;;;;;5110524;28;20030;-72
2021/05/22 13:33:34;;;;;;;7.13;1.90;;;12.30;99.90;;;;;;5109964;28;20046;-70